Oxford, NC

2:28 PM EDT on September 19, 2014 (GMT -0400)
Raleigh-Durham International | Change Station
CLOSE
Current Station
Airport
Location: Raleigh-Durham Airport,
Elevation: 436 ft
Nearby Weather Stations

Elev 436 ft 35.89 °N, 78.78 °W | Updated 37 minutes ago

Overcast
Overcast
79 °F
Feels Like 79 °F
N
15
Wind Variable Wind from East
Gusts 20 mph

Today
High -- | Low -- °F
--% Chance of Precip.
Yesterday
High -- | Low -- °F
Precip. -- in
6:59 AM 7:15 PM
Waning Crescent, 17% visible
Pressure 30.17 in
Visibility 10.0 miles
Clouds Few 4500 ft
Scattered Clouds 11000 ft
Scattered Clouds 25000 ft
Dew Point 57 °F
Humidity 47%
Rainfall 0.00 in
Snow Depth Not available.
UV 7 out of 12
Pollen 5.90 out of 12
Ozone Good
PM2.5 Good
Flu Activity Not available.
METAR KRDU 191751Z 08013G17KT 10SM FEW045 SCT110 SCT250 26/14 A3018 RMK AO2 SLP216 T02610139 10261 20183 58004 $

More Conditions Fewer Conditions

Pressure 30.17 in
Visibility 10.0 miles
Clouds Few 4500 ft
Scattered Clouds 11000 ft
Scattered Clouds 25000 ft
Dew Point 57 °F
Humidity 47%
Rainfall 0.00 in
Snow Depth Not available.
UV 7 out of 12
Pollen 5.90 out of 12
Ozone Good
PM2.5 Good
Flu Activity Not available.
METAR KRDU 191751Z 08013G17KT 10SM FEW045 SCT110 SCT250 26/14 A3018 RMK AO2 SLP216 T02610139 10261 20183 58004 $

More Conditions Fewer Conditions

10-Day Weather Forecast

Almanac

Astronomy

Sep. 19, 2014 Rise Set
Actual Time 6:59 AM EDT 7:15 PM EDT
Civil Twilight 6:34 AM EDT 7:41 PM EDT
Nautical Twilight 6:04 AM EDT 8:11 PM EDT
Astronomical Twilight 5:33 AM EDT 8:42 PM EDT
Moon 2:49 AM EDT 4:38 PM EDT
Length of Visible Light 13h 07m
Length of Day
12h 15m
Tomorrow will be 2m 17s shorter.
Waning Crescent, 17% of the Moon is Illuminated
Today
Waning Crescent
Sep 24
New
Oct 1
First Quarter
Oct 8
Full
Oct 15
Last Quarter

Today's Extremes

State Highs State Lows

Community

WunderPhotos

Upload Photos

1,754,677 photos uploaded!

WunderBlogs® & News

Nearby

Air Quality

  Air Quality AQ Index Pollutant
Yesterday Good
OZONE
Yesterday Good
PM2.5
Current Good
OZONE
Current Good
PM2.5
Friday Good
PM2.5
Friday Good
OZONE
Saturday Good
OZONE
Saturday Good
PM2.5
Sunday Good
PM2.5
Sunday Good
OZONE
Monday Good
PM2.5
Monday Good
OZONE

Snow Depth

Station Depth Elevation
No new snow has been reported.

Earthquake Activity

City Distance Mag. Time & Date
No recent earthquake activity has been reported nearby.
Minimum magnitude displayed is 2.5.

Coastal Water Temperatures

Place Temperature
No Stations Reporting

Nearby Weather Stations